sensor_id;sensor_type;location;lat;lon;timestamp;P1;durP1;ratioP1;P2;durP2;ratioP2
83404;SDS011;73331;48.168;20.776;2024-03-08T00:01:08;30.13;;;13.75;;
83404;SDS011;73331;48.168;20.776;2024-03-08T00:02:38;31.23;;;13.70;;
83404;SDS011;73331;48.168;20.776;2024-03-08T00:04:09;29.88;;;12.50;;
83404;SDS011;73331;48.168;20.776;2024-03-08T00:05:40;20.40;;;7.03;;
83404;SDS011;73331;48.168;20.776;2024-03-08T00:07:11;16.08;;;7.53;;
83404;SDS011;73331;48.168;20.776;2024-03-08T00:08:43;25.45;;;12.48;;
83404;SDS011;73331;48.168;20.776;2024-03-08T00:10:14;14.52;;;7.28;;
83404;SDS011;73331;48.168;20.776;2024-03-08T00:11:44;22.23;;;8.60;;
83404;SDS011;73331;48.168;20.776;2024-03-08T00:13:15;22.92;;;9.35;;
83404;SDS011;73331;48.168;20.776;2024-03-08T00:14:45;20.50;;;8.98;;
83404;SDS011;73331;48.168;20.776;2024-03-08T00:16:16;18.02;;;7.32;;
83404;SDS011;73331;48.168;20.776;2024-03-08T00:17:46;25.15;;;11.55;;
83404;SDS011;73331;48.168;20.776;2024-03-08T00:19:17;22.70;;;11.05;;
83404;SDS011;73331;48.168;20.776;2024-03-08T00:20:47;24.05;;;11.90;;
83404;SDS011;73331;48.168;20.776;2024-03-08T00:22:18;25.60;;;10.80;;
83404;SDS011;73331;48.168;20.776;2024-03-08T00:23:48;14.00;;;8.02;;
83404;SDS011;73331;48.168;20.776;2024-03-08T00:25:19;26.58;;;10.05;;
83404;SDS011;73331;48.168;20.776;2024-03-08T00:26:50;25.27;;;10.95;;
83404;SDS011;73331;48.168;20.776;2024-03-08T00:28:20;28.80;;;12.40;;
83404;SDS011;73331;48.168;20.776;2024-03-08T00:29:51;23.90;;;9.80;;
83404;SDS011;73331;48.168;20.776;2024-03-08T00:31:21;18.15;;;9.05;;
83404;SDS011;73331;48.168;20.776;2024-03-08T00:32:52;27.75;;;11.65;;
83404;SDS011;73331;48.168;20.776;2024-03-08T00:34:22;21.65;;;8.75;;
83404;SDS011;73331;48.168;20.776;2024-03-08T00:35:56;26.25;;;10.85;;
83404;SDS011;73331;48.168;20.776;2024-03-08T00:37:27;28.52;;;12.43;;
83404;SDS011;73331;48.168;20.776;2024-03-08T00:38:57;24.67;;;10.45;;
83404;SDS011;73331;48.168;20.776;2024-03-08T00:40:30;23.05;;;10.85;;
83404;SDS011;73331;48.168;20.776;2024-03-08T00:42:01;26.02;;;11.15;;
83404;SDS011;73331;48.168;20.776;2024-03-08T00:43:31;16.98;;;7.32;;
83404;SDS011;73331;48.168;20.776;2024-03-08T00:45:02;20.05;;;9.90;;
83404;SDS011;73331;48.168;20.776;2024-03-08T00:46:33;25.75;;;10.35;;
83404;SDS011;73331;48.168;20.776;2024-03-08T00:48:04;17.90;;;7.68;;
83404;SDS011;73331;48.168;20.776;2024-03-08T00:49:36;22.02;;;9.40;;
83404;SDS011;73331;48.168;20.776;2024-03-08T00:51:08;21.17;;;10.15;;
83404;SDS011;73331;48.168;20.776;2024-03-08T00:52:38;13.27;;;5.93;;
83404;SDS011;73331;48.168;20.776;2024-03-08T00:54:09;26.25;;;10.35;;
83404;SDS011;73331;48.168;20.776;2024-03-08T00:55:39;18.27;;;8.65;;
83404;SDS011;73331;48.168;20.776;2024-03-08T00:57:10;18.73;;;8.98;;
83404;SDS011;73331;48.168;20.776;2024-03-08T00:58:40;14.38;;;7.40;;
83404;SDS011;73331;48.168;20.776;2024-03-08T01:00:11;24.05;;;11.70;;
83404;SDS011;73331;48.168;20.776;2024-03-08T01:01:42;20.70;;;9.27;;
83404;SDS011;73331;48.168;20.776;2024-03-08T01:03:14;18.38;;;8.57;;
83404;SDS011;73331;48.168;20.776;2024-03-08T01:04:44;13.13;;;7.97;;
83404;SDS011;73331;48.168;20.776;2024-03-08T01:06:17;19.20;;;9.10;;
83404;SDS011;73331;48.168;20.776;2024-03-08T01:07:48;12.02;;;6.72;;
83404;SDS011;73331;48.168;20.776;2024-03-08T01:09:19;13.52;;;6.32;;
83404;SDS011;73331;48.168;20.776;2024-03-08T01:10:51;9.93;;;6.03;;
83404;SDS011;73331;48.168;20.776;2024-03-08T01:12:22;16.98;;;7.28;;
83404;SDS011;73331;48.168;20.776;2024-03-08T01:13:52;24.30;;;9.02;;
83404;SDS011;73331;48.168;20.776;2024-03-08T01:15:23;23.33;;;9.45;;
83404;SDS011;73331;48.168;20.776;2024-03-08T01:16:54;16.55;;;8.07;;
83404;SDS011;73331;48.168;20.776;2024-03-08T01:18:25;15.90;;;8.57;;
83404;SDS011;73331;48.168;20.776;2024-03-08T01:19:55;17.73;;;9.30;;
83404;SDS011;73331;48.168;20.776;2024-03-08T01:21:26;14.70;;;7.32;;
83404;SDS011;73331;48.168;20.776;2024-03-08T01:22:56;21.80;;;9.88;;
83404;SDS011;73331;48.168;20.776;2024-03-08T01:24:27;21.05;;;9.13;;
83404;SDS011;73331;48.168;20.776;2024-03-08T01:25:57;24.27;;;10.15;;
83404;SDS011;73331;48.168;20.776;2024-03-08T01:27:28;17.20;;;7.75;;
83404;SDS011;73331;48.168;20.776;2024-03-08T01:28:58;15.15;;;8.07;;
83404;SDS011;73331;48.168;20.776;2024-03-08T01:30:29;22.50;;;10.65;;
83404;SDS011;73331;48.168;20.776;2024-03-08T01:31:59;23.38;;;10.10;;
83404;SDS011;73331;48.168;20.776;2024-03-08T01:35:02;19.15;;;9.38;;
83404;SDS011;73331;48.168;20.776;2024-03-08T01:36:33;11.38;;;5.53;;
83404;SDS011;73331;48.168;20.776;2024-03-08T01:38:03;16.75;;;8.38;;
83404;SDS011;73331;48.168;20.776;2024-03-08T01:39:35;25.88;;;10.65;;
83404;SDS011;73331;48.168;20.776;2024-03-08T01:41:05;23.17;;;10.55;;
83404;SDS011;73331;48.168;20.776;2024-03-08T01:42:36;24.80;;;11.73;;
83404;SDS011;73331;48.168;20.776;2024-03-08T01:44:09;18.90;;;10.13;;
83404;SDS011;73331;48.168;20.776;2024-03-08T01:45:39;23.98;;;10.70;;
83404;SDS011;73331;48.168;20.776;2024-03-08T01:47:10;22.48;;;9.68;;
83404;SDS011;73331;48.168;20.776;2024-03-08T01:48:41;17.15;;;7.60;;
83404;SDS011;73331;48.168;20.776;2024-03-08T01:50:13;21.73;;;10.43;;
83404;SDS011;73331;48.168;20.776;2024-03-08T01:51:43;20.95;;;10.63;;
83404;SDS011;73331;48.168;20.776;2024-03-08T01:53:14;24.77;;;11.73;;
83404;SDS011;73331;48.168;20.776;2024-03-08T01:54:45;25.30;;;11.57;;
83404;SDS011;73331;48.168;20.776;2024-03-08T01:56:16;23.92;;;11.82;;
83404;SDS011;73331;48.168;20.776;2024-03-08T01:57:48;28.42;;;12.52;;
83404;SDS011;73331;48.168;20.776;2024-03-08T01:59:19;24.52;;;12.55;;
83404;SDS011;73331;48.168;20.776;2024-03-08T02:00:50;25.13;;;10.10;;
83404;SDS011;73331;48.168;20.776;2024-03-08T02:02:20;28.02;;;12.25;;
83404;SDS011;73331;48.168;20.776;2024-03-08T02:03:52;20.02;;;9.90;;
83404;SDS011;73331;48.168;20.776;2024-03-08T02:05:22;24.25;;;11.77;;
83404;SDS011;73331;48.168;20.776;2024-03-08T02:06:53;25.98;;;12.35;;
83404;SDS011;73331;48.168;20.776;2024-03-08T02:08:24;28.15;;;12.95;;
83404;SDS011;73331;48.168;20.776;2024-03-08T02:09:54;24.95;;;11.43;;
83404;SDS011;73331;48.168;20.776;2024-03-08T02:11:25;26.55;;;11.50;;
83404;SDS011;73331;48.168;20.776;2024-03-08T02:12:56;28.83;;;12.48;;
83404;SDS011;73331;48.168;20.776;2024-03-08T02:14:26;24.75;;;12.23;;
83404;SDS011;73331;48.168;20.776;2024-03-08T02:15:57;25.75;;;11.07;;
83404;SDS011;73331;48.168;20.776;2024-03-08T02:17:32;26.67;;;11.50;;
83404;SDS011;73331;48.168;20.776;2024-03-08T02:19:05;21.88;;;11.63;;
83404;SDS011;73331;48.168;20.776;2024-03-08T02:20:39;24.25;;;11.93;;
83404;SDS011;73331;48.168;20.776;2024-03-08T02:22:10;20.60;;;10.00;;
83404;SDS011;73331;48.168;20.776;2024-03-08T02:23:40;24.70;;;11.52;;
83404;SDS011;73331;48.168;20.776;2024-03-08T02:25:11;28.25;;;12.00;;
83404;SDS011;73331;48.168;20.776;2024-03-08T02:26:41;28.50;;;12.65;;
83404;SDS011;73331;48.168;20.776;2024-03-08T02:28:13;28.88;;;12.68;;
83404;SDS011;73331;48.168;20.776;2024-03-08T02:29:44;26.08;;;11.30;;
83404;SDS011;73331;48.168;20.776;2024-03-08T02:31:15;22.67;;;10.00;;
83404;SDS011;73331;48.168;20.776;2024-03-08T02:32:46;26.38;;;10.23;;
83404;SDS011;73331;48.168;20.776;2024-03-08T02:34:17;25.25;;;10.20;;
83404;SDS011;73331;48.168;20.776;2024-03-08T02:35:48;26.83;;;13.25;;
83404;SDS011;73331;48.168;20.776;2024-03-08T02:37:19;30.60;;;12.77;;
83404;SDS011;73331;48.168;20.776;2024-03-08T02:38:50;25.92;;;12.30;;
83404;SDS011;73331;48.168;20.776;2024-03-08T02:40:20;24.50;;;11.43;;
83404;SDS011;73331;48.168;20.776;2024-03-08T02:41:52;16.45;;;7.32;;
83404;SDS011;73331;48.168;20.776;2024-03-08T02:43:22;28.92;;;12.63;;
83404;SDS011;73331;48.168;20.776;2024-03-08T02:44:54;15.52;;;7.47;;
83404;SDS011;73331;48.168;20.776;2024-03-08T02:46:24;22.90;;;10.52;;
83404;SDS011;73331;48.168;20.776;2024-03-08T02:47:55;15.93;;;8.55;;
83404;SDS011;73331;48.168;20.776;2024-03-08T02:49:26;20.25;;;8.73;;
83404;SDS011;73331;48.168;20.776;2024-03-08T02:50:57;13.95;;;6.15;;
83404;SDS011;73331;48.168;20.776;2024-03-08T02:52:27;18.80;;;8.65;;
83404;SDS011;73331;48.168;20.776;2024-03-08T02:53:58;15.15;;;7.30;;
83404;SDS011;73331;48.168;20.776;2024-03-08T02:55:28;16.45;;;7.15;;
83404;SDS011;73331;48.168;20.776;2024-03-08T02:56:59;20.60;;;6.60;;
83404;SDS011;73331;48.168;20.776;2024-03-08T02:58:30;18.45;;;8.55;;
83404;SDS011;73331;48.168;20.776;2024-03-08T03:00:00;23.38;;;10.13;;
83404;SDS011;73331;48.168;20.776;2024-03-08T03:01:30;18.58;;;9.18;;
83404;SDS011;73331;48.168;20.776;2024-03-08T03:03:02;24.88;;;11.32;;
83404;SDS011;73331;48.168;20.776;2024-03-08T03:04:33;28.95;;;13.32;;
83404;SDS011;73331;48.168;20.776;2024-03-08T03:06:04;27.42;;;12.18;;
83404;SDS011;73331;48.168;20.776;2024-03-08T03:07:37;24.13;;;11.90;;
83404;SDS011;73331;48.168;20.776;2024-03-08T03:09:08;25.92;;;12.98;;
83404;SDS011;73331;48.168;20.776;2024-03-08T03:10:40;28.52;;;12.27;;
83404;SDS011;73331;48.168;20.776;2024-03-08T03:12:11;27.50;;;13.30;;
83404;SDS011;73331;48.168;20.776;2024-03-08T03:13:41;27.17;;;11.65;;
83404;SDS011;73331;48.168;20.776;2024-03-08T03:15:12;26.15;;;12.13;;
83404;SDS011;73331;48.168;20.776;2024-03-08T03:16:43;26.38;;;10.43;;
83404;SDS011;73331;48.168;20.776;2024-03-08T03:18:14;26.70;;;12.05;;
83404;SDS011;73331;48.168;20.776;2024-03-08T03:19:45;21.95;;;11.90;;
83404;SDS011;73331;48.168;20.776;2024-03-08T03:21:16;23.48;;;11.82;;
83404;SDS011;73331;48.168;20.776;2024-03-08T03:22:47;24.75;;;11.50;;
83404;SDS011;73331;48.168;20.776;2024-03-08T03:24:21;20.52;;;10.43;;
83404;SDS011;73331;48.168;20.776;2024-03-08T03:25:53;22.92;;;10.90;;
83404;SDS011;73331;48.168;20.776;2024-03-08T03:27:27;22.00;;;9.65;;
83404;SDS011;73331;48.168;20.776;2024-03-08T03:28:57;25.10;;;10.93;;
83404;SDS011;73331;48.168;20.776;2024-03-08T03:30:30;22.67;;;11.10;;
83404;SDS011;73331;48.168;20.776;2024-03-08T03:32:03;22.80;;;9.95;;
83404;SDS011;73331;48.168;20.776;2024-03-08T03:33:34;25.08;;;12.50;;
83404;SDS011;73331;48.168;20.776;2024-03-08T03:35:06;26.60;;;11.75;;
83404;SDS011;73331;48.168;20.776;2024-03-08T03:36:37;24.95;;;11.38;;
83404;SDS011;73331;48.168;20.776;2024-03-08T03:38:12;22.88;;;10.82;;
83404;SDS011;73331;48.168;20.776;2024-03-08T03:39:44;24.35;;;11.73;;
83404;SDS011;73331;48.168;20.776;2024-03-08T03:41:22;23.88;;;12.02;;
83404;SDS011;73331;48.168;20.776;2024-03-08T03:42:53;19.38;;;9.82;;
83404;SDS011;73331;48.168;20.776;2024-03-08T03:44:24;23.58;;;11.75;;
83404;SDS011;73331;48.168;20.776;2024-03-08T03:45:55;26.30;;;12.35;;
83404;SDS011;73331;48.168;20.776;2024-03-08T03:47:25;24.35;;;12.10;;
83404;SDS011;73331;48.168;20.776;2024-03-08T03:48:57;29.40;;;12.23;;
83404;SDS011;73331;48.168;20.776;2024-03-08T03:50:27;26.88;;;11.13;;
83404;SDS011;73331;48.168;20.776;2024-03-08T03:51:58;27.52;;;12.77;;
83404;SDS011;73331;48.168;20.776;2024-03-08T03:53:28;28.25;;;13.10;;
83404;SDS011;73331;48.168;20.776;2024-03-08T03:54:59;27.40;;;12.73;;
83404;SDS011;73331;48.168;20.776;2024-03-08T03:56:29;28.92;;;13.68;;
83404;SDS011;73331;48.168;20.776;2024-03-08T03:58:03;26.33;;;12.85;;
83404;SDS011;73331;48.168;20.776;2024-03-08T03:59:34;27.02;;;13.18;;
83404;SDS011;73331;48.168;20.776;2024-03-08T04:01:04;27.27;;;13.63;;
83404;SDS011;73331;48.168;20.776;2024-03-08T04:02:38;29.98;;;13.15;;
83404;SDS011;73331;48.168;20.776;2024-03-08T04:04:09;28.98;;;13.00;;
83404;SDS011;73331;48.168;20.776;2024-03-08T04:05:40;26.63;;;12.35;;
83404;SDS011;73331;48.168;20.776;2024-03-08T04:07:10;24.52;;;12.13;;
83404;SDS011;73331;48.168;20.776;2024-03-08T04:08:41;24.83;;;12.23;;
83404;SDS011;73331;48.168;20.776;2024-03-08T04:10:11;26.58;;;12.20;;
83404;SDS011;73331;48.168;20.776;2024-03-08T04:11:42;23.00;;;9.43;;
83404;SDS011;73331;48.168;20.776;2024-03-08T04:13:12;25.40;;;10.50;;
83404;SDS011;73331;48.168;20.776;2024-03-08T04:14:45;19.77;;;8.82;;
83404;SDS011;73331;48.168;20.776;2024-03-08T04:16:16;19.50;;;9.93;;
83404;SDS011;73331;48.168;20.776;2024-03-08T04:17:46;25.02;;;11.00;;
83404;SDS011;73331;48.168;20.776;2024-03-08T04:19:17;21.33;;;10.43;;
83404;SDS011;73331;48.168;20.776;2024-03-08T04:20:47;26.75;;;11.63;;
83404;SDS011;73331;48.168;20.776;2024-03-08T04:22:18;22.67;;;10.32;;
83404;SDS011;73331;48.168;20.776;2024-03-08T04:23:48;20.17;;;10.13;;
83404;SDS011;73331;48.168;20.776;2024-03-08T04:25:19;20.45;;;9.15;;
83404;SDS011;73331;48.168;20.776;2024-03-08T04:26:50;17.35;;;6.80;;
83404;SDS011;73331;48.168;20.776;2024-03-08T04:28:21;16.90;;;7.80;;
83404;SDS011;73331;48.168;20.776;2024-03-08T04:29:51;16.52;;;8.00;;
83404;SDS011;73331;48.168;20.776;2024-03-08T04:31:22;8.57;;;5.07;;
83404;SDS011;73331;48.168;20.776;2024-03-08T04:32:52;18.55;;;8.07;;
83404;SDS011;73331;48.168;20.776;2024-03-08T04:34:23;25.45;;;10.55;;
83404;SDS011;73331;48.168;20.776;2024-03-08T04:35:54;16.58;;;7.20;;
83404;SDS011;73331;48.168;20.776;2024-03-08T04:37:24;18.70;;;8.35;;
83404;SDS011;73331;48.168;20.776;2024-03-08T04:38:55;21.48;;;8.85;;
83404;SDS011;73331;48.168;20.776;2024-03-08T04:40:25;21.67;;;10.10;;
83404;SDS011;73331;48.168;20.776;2024-03-08T04:41:59;24.33;;;10.23;;
83404;SDS011;73331;48.168;20.776;2024-03-08T04:43:40;22.83;;;10.48;;
83404;SDS011;73331;48.168;20.776;2024-03-08T04:45:10;23.92;;;10.35;;
83404;SDS011;73331;48.168;20.776;2024-03-08T04:46:41;26.08;;;11.70;;
83404;SDS011;73331;48.168;20.776;2024-03-08T04:48:11;21.75;;;10.60;;
83404;SDS011;73331;48.168;20.776;2024-03-08T04:49:42;23.67;;;10.65;;
83404;SDS011;73331;48.168;20.776;2024-03-08T04:51:12;25.88;;;10.00;;
83404;SDS011;73331;48.168;20.776;2024-03-08T04:52:43;21.65;;;9.20;;
83404;SDS011;73331;48.168;20.776;2024-03-08T04:54:13;22.75;;;11.00;;
83404;SDS011;73331;48.168;20.776;2024-03-08T04:55:44;25.17;;;11.27;;
83404;SDS011;73331;48.168;20.776;2024-03-08T04:57:14;20.60;;;10.57;;
83404;SDS011;73331;48.168;20.776;2024-03-08T04:58:45;23.95;;;10.32;;
83404;SDS011;73331;48.168;20.776;2024-03-08T05:00:18;21.88;;;10.00;;
83404;SDS011;73331;48.168;20.776;2024-03-08T05:01:49;23.88;;;9.90;;
83404;SDS011;73331;48.168;20.776;2024-03-08T05:03:19;22.02;;;11.75;;
83404;SDS011;73331;48.168;20.776;2024-03-08T05:04:51;22.55;;;9.68;;
83404;SDS011;73331;48.168;20.776;2024-03-08T05:06:21;23.75;;;9.90;;
83404;SDS011;73331;48.168;20.776;2024-03-08T05:07:53;24.60;;;9.95;;
83404;SDS011;73331;48.168;20.776;2024-03-08T05:09:24;24.65;;;11.63;;
83404;SDS011;73331;48.168;20.776;2024-03-08T05:10:54;23.40;;;10.20;;
83404;SDS011;73331;48.168;20.776;2024-03-08T05:12:25;22.30;;;9.85;;
83404;SDS011;73331;48.168;20.776;2024-03-08T05:13:56;24.58;;;10.73;;
83404;SDS011;73331;48.168;20.776;2024-03-08T05:15:29;21.63;;;9.38;;
83404;SDS011;73331;48.168;20.776;2024-03-08T05:16:59;22.10;;;10.65;;
83404;SDS011;73331;48.168;20.776;2024-03-08T05:18:30;25.05;;;11.85;;
83404;SDS011;73331;48.168;20.776;2024-03-08T05:20:02;17.27;;;8.05;;
83404;SDS011;73331;48.168;20.776;2024-03-08T05:21:34;24.05;;;9.52;;
83404;SDS011;73331;48.168;20.776;2024-03-08T05:23:04;26.27;;;11.07;;
83404;SDS011;73331;48.168;20.776;2024-03-08T05:24:35;21.83;;;8.93;;
83404;SDS011;73331;48.168;20.776;2024-03-08T05:26:06;22.65;;;10.57;;
83404;SDS011;73331;48.168;20.776;2024-03-08T05:27:36;18.85;;;9.57;;
83404;SDS011;73331;48.168;20.776;2024-03-08T05:29:07;23.98;;;9.43;;
83404;SDS011;73331;48.168;20.776;2024-03-08T05:30:41;21.67;;;10.25;;
83404;SDS011;73331;48.168;20.776;2024-03-08T05:32:11;25.33;;;10.48;;
83404;SDS011;73331;48.168;20.776;2024-03-08T05:33:42;22.95;;;10.95;;
83404;SDS011;73331;48.168;20.776;2024-03-08T05:35:13;19.85;;;9.38;;
83404;SDS011;73331;48.168;20.776;2024-03-08T05:36:46;22.35;;;9.45;;
83404;SDS011;73331;48.168;20.776;2024-03-08T05:38:16;19.33;;;8.35;;
83404;SDS011;73331;48.168;20.776;2024-03-08T05:39:47;24.20;;;10.25;;
83404;SDS011;73331;48.168;20.776;2024-03-08T05:41:18;18.38;;;7.75;;
83404;SDS011;73331;48.168;20.776;2024-03-08T05:42:48;20.00;;;9.07;;
83404;SDS011;73331;48.168;20.776;2024-03-08T05:44:19;18.55;;;9.70;;
83404;SDS011;73331;48.168;20.776;2024-03-08T05:45:50;21.88;;;9.85;;
83404;SDS011;73331;48.168;20.776;2024-03-08T05:47:20;20.20;;;10.13;;
83404;SDS011;73331;48.168;20.776;2024-03-08T05:48:50;21.55;;;9.80;;
83404;SDS011;73331;48.168;20.776;2024-03-08T05:50:21;21.83;;;10.25;;
83404;SDS011;73331;48.168;20.776;2024-03-08T05:51:52;18.40;;;8.30;;
83404;SDS011;73331;48.168;20.776;2024-03-08T05:54:54;21.98;;;9.32;;
83404;SDS011;73331;48.168;20.776;2024-03-08T05:56:25;19.73;;;8.77;;
83404;SDS011;73331;48.168;20.776;2024-03-08T05:57:55;19.40;;;8.73;;
83404;SDS011;73331;48.168;20.776;2024-03-08T05:59:26;21.20;;;10.65;;
83404;SDS011;73331;48.168;20.776;2024-03-08T06:00:57;19.63;;;10.90;;
83404;SDS011;73331;48.168;20.776;2024-03-08T06:02:27;24.85;;;10.15;;
83404;SDS011;73331;48.168;20.776;2024-03-08T06:03:58;22.50;;;10.45;;
83404;SDS011;73331;48.168;20.776;2024-03-08T06:05:29;16.77;;;7.68;;
83404;SDS011;73331;48.168;20.776;2024-03-08T06:06:59;15.25;;;7.47;;
83404;SDS011;73331;48.168;20.776;2024-03-08T06:08:30;24.02;;;8.45;;
83404;SDS011;73331;48.168;20.776;2024-03-08T06:10:00;19.13;;;7.97;;
83404;SDS011;73331;48.168;20.776;2024-03-08T06:11:31;20.70;;;7.68;;
83404;SDS011;73331;48.168;20.776;2024-03-08T06:13:01;22.10;;;9.82;;
83404;SDS011;73331;48.168;20.776;2024-03-08T06:14:32;23.13;;;10.45;;
83404;SDS011;73331;48.168;20.776;2024-03-08T06:16:03;25.00;;;11.05;;
83404;SDS011;73331;48.168;20.776;2024-03-08T06:17:34;22.67;;;10.10;;
83404;SDS011;73331;48.168;20.776;2024-03-08T06:19:06;21.67;;;10.80;;
83404;SDS011;73331;48.168;20.776;2024-03-08T06:20:36;23.83;;;11.10;;
83404;SDS011;73331;48.168;20.776;2024-03-08T06:22:06;23.40;;;11.50;;
83404;SDS011;73331;48.168;20.776;2024-03-08T06:23:37;23.30;;;10.43;;
83404;SDS011;73331;48.168;20.776;2024-03-08T06:25:08;24.48;;;10.75;;
83404;SDS011;73331;48.168;20.776;2024-03-08T06:26:41;24.45;;;11.82;;
83404;SDS011;73331;48.168;20.776;2024-03-08T06:28:11;21.35;;;10.23;;
83404;SDS011;73331;48.168;20.776;2024-03-08T06:29:42;19.40;;;9.10;;
83404;SDS011;73331;48.168;20.776;2024-03-08T06:31:12;21.88;;;10.18;;
83404;SDS011;73331;48.168;20.776;2024-03-08T06:32:43;25.50;;;10.82;;
83404;SDS011;73331;48.168;20.776;2024-03-08T06:34:13;25.85;;;10.23;;
83404;SDS011;73331;48.168;20.776;2024-03-08T06:37:16;18.13;;;8.63;;
83404;SDS011;73331;48.168;20.776;2024-03-08T06:38:47;22.92;;;10.20;;
83404;SDS011;73331;48.168;20.776;2024-03-08T06:40:18;22.23;;;10.45;;
83404;SDS011;73331;48.168;20.776;2024-03-08T06:41:48;24.38;;;11.07;;
83404;SDS011;73331;48.168;20.776;2024-03-08T06:43:21;25.98;;;10.00;;
83404;SDS011;73331;48.168;20.776;2024-03-08T06:44:52;23.50;;;10.23;;
83404;SDS011;73331;48.168;20.776;2024-03-08T06:46:25;20.08;;;9.55;;
83404;SDS011;73331;48.168;20.776;2024-03-08T06:47:56;20.20;;;10.18;;
83404;SDS011;73331;48.168;20.776;2024-03-08T06:49:26;25.80;;;10.82;;
83404;SDS011;73331;48.168;20.776;2024-03-08T06:50:57;26.90;;;11.63;;
83404;SDS011;73331;48.168;20.776;2024-03-08T06:52:27;23.63;;;11.77;;
83404;SDS011;73331;48.168;20.776;2024-03-08T06:53:58;26.35;;;13.10;;
83404;SDS011;73331;48.168;20.776;2024-03-08T06:55:28;36.92;;;13.07;;
83404;SDS011;73331;48.168;20.776;2024-03-08T06:56:59;23.23;;;11.52;;
83404;SDS011;73331;48.168;20.776;2024-03-08T06:58:30;25.88;;;12.73;;
83404;SDS011;73331;48.168;20.776;2024-03-08T07:00:00;26.92;;;13.02;;
83404;SDS011;73331;48.168;20.776;2024-03-08T07:01:31;31.17;;;13.60;;
83404;SDS011;73331;48.168;20.776;2024-03-08T07:03:02;27.50;;;13.45;;
83404;SDS011;73331;48.168;20.776;2024-03-08T07:04:33;29.30;;;13.90;;
83404;SDS011;73331;48.168;20.776;2024-03-08T07:06:04;24.70;;;12.23;;
83404;SDS011;73331;48.168;20.776;2024-03-08T07:07:37;30.35;;;13.82;;
83404;SDS011;73331;48.168;20.776;2024-03-08T07:09:08;29.77;;;13.70;;
83404;SDS011;73331;48.168;20.776;2024-03-08T07:10:38;30.10;;;13.80;;
83404;SDS011;73331;48.168;20.776;2024-03-08T07:12:11;33.47;;;15.38;;
83404;SDS011;73331;48.168;20.776;2024-03-08T07:13:46;33.15;;;14.05;;
83404;SDS011;73331;48.168;20.776;2024-03-08T07:15:17;28.35;;;14.27;;
83404;SDS011;73331;48.168;20.776;2024-03-08T07:16:49;34.83;;;15.05;;
83404;SDS011;73331;48.168;20.776;2024-03-08T07:18:21;28.27;;;12.68;;
83404;SDS011;73331;48.168;20.776;2024-03-08T07:19:52;27.60;;;13.85;;
83404;SDS011;73331;48.168;20.776;2024-03-08T07:21:24;33.75;;;16.52;;
83404;SDS011;73331;48.168;20.776;2024-03-08T07:22:55;31.50;;;16.67;;
83404;SDS011;73331;48.168;20.776;2024-03-08T07:24:25;32.13;;;14.68;;
83404;SDS011;73331;48.168;20.776;2024-03-08T07:26:20;28.90;;;14.52;;
83404;SDS011;73331;48.168;20.776;2024-03-08T07:27:51;35.92;;;17.15;;
83404;SDS011;73331;48.168;20.776;2024-03-08T07:29:22;29.95;;;14.90;;
83404;SDS011;73331;48.168;20.776;2024-03-08T07:30:53;34.03;;;13.52;;
83404;SDS011;73331;48.168;20.776;2024-03-08T07:32:32;31.10;;;14.85;;
83404;SDS011;73331;48.168;20.776;2024-03-08T07:34:05;28.88;;;14.35;;
83404;SDS011;73331;48.168;20.776;2024-03-08T07:35:37;34.22;;;14.85;;
83404;SDS011;73331;48.168;20.776;2024-03-08T07:37:09;29.80;;;14.55;;
83404;SDS011;73331;48.168;20.776;2024-03-08T07:38:41;37.45;;;16.23;;
83404;SDS011;73331;48.168;20.776;2024-03-08T07:40:11;29.50;;;13.45;;
83404;SDS011;73331;48.168;20.776;2024-03-08T07:41:43;29.83;;;15.13;;
83404;SDS011;73331;48.168;20.776;2024-03-08T07:43:14;30.95;;;16.58;;
83404;SDS011;73331;48.168;20.776;2024-03-08T07:44:45;31.90;;;14.85;;
83404;SDS011;73331;48.168;20.776;2024-03-08T07:46:18;29.15;;;14.73;;
83404;SDS011;73331;48.168;20.776;2024-03-08T07:47:49;31.88;;;14.82;;
83404;SDS011;73331;48.168;20.776;2024-03-08T07:49:21;31.52;;;14.55;;
83404;SDS011;73331;48.168;20.776;2024-03-08T07:50:51;33.08;;;16.90;;
83404;SDS011;73331;48.168;20.776;2024-03-08T07:52:22;26.90;;;13.48;;
83404;SDS011;73331;48.168;20.776;2024-03-08T07:53:52;26.02;;;11.45;;
83404;SDS011;73331;48.168;20.776;2024-03-08T07:55:23;27.40;;;11.65;;
83404;SDS011;73331;48.168;20.776;2024-03-08T07:56:54;29.98;;;13.70;;
83404;SDS011;73331;48.168;20.776;2024-03-08T07:58:24;29.05;;;14.57;;
83404;SDS011;73331;48.168;20.776;2024-03-08T07:59:55;31.88;;;14.60;;
83404;SDS011;73331;48.168;20.776;2024-03-08T08:01:26;33.10;;;14.55;;
83404;SDS011;73331;48.168;20.776;2024-03-08T08:02:56;30.92;;;12.93;;
83404;SDS011;73331;48.168;20.776;2024-03-08T08:04:27;27.10;;;12.70;;
83404;SDS011;73331;48.168;20.776;2024-03-08T08:05:57;27.38;;;13.63;;
83404;SDS011;73331;48.168;20.776;2024-03-08T08:07:28;23.00;;;12.20;;
83404;SDS011;73331;48.168;20.776;2024-03-08T08:08:59;28.23;;;13.30;;
83404;SDS011;73331;48.168;20.776;2024-03-08T08:10:30;29.50;;;13.55;;
83404;SDS011;73331;48.168;20.776;2024-03-08T08:12:03;27.85;;;13.65;;
83404;SDS011;73331;48.168;20.776;2024-03-08T08:13:34;33.58;;;13.40;;
83404;SDS011;73331;48.168;20.776;2024-03-08T08:15:06;30.75;;;14.70;;
83404;SDS011;73331;48.168;20.776;2024-03-08T08:16:37;32.83;;;13.82;;
83404;SDS011;73331;48.168;20.776;2024-03-08T08:18:08;29.35;;;14.13;;
83404;SDS011;73331;48.168;20.776;2024-03-08T08:19:43;27.83;;;13.18;;
83404;SDS011;73331;48.168;20.776;2024-03-08T08:21:13;23.73;;;11.32;;
83404;SDS011;73331;48.168;20.776;2024-03-08T08:22:44;29.58;;;13.75;;
83404;SDS011;73331;48.168;20.776;2024-03-08T08:24:14;31.65;;;12.88;;
83404;SDS011;73331;48.168;20.776;2024-03-08T08:25:45;29.27;;;14.43;;
83404;SDS011;73331;48.168;20.776;2024-03-08T08:27:16;30.35;;;12.50;;
83404;SDS011;73331;48.168;20.776;2024-03-08T08:28:47;27.10;;;13.68;;
83404;SDS011;73331;48.168;20.776;2024-03-08T08:30:17;28.95;;;13.43;;
83404;SDS011;73331;48.168;20.776;2024-03-08T08:31:48;28.98;;;12.48;;
83404;SDS011;73331;48.168;20.776;2024-03-08T08:33:20;29.38;;;13.30;;
83404;SDS011;73331;48.168;20.776;2024-03-08T08:34:50;24.02;;;12.75;;
83404;SDS011;73331;48.168;20.776;2024-03-08T08:36:21;36.22;;;13.43;;
83404;SDS011;73331;48.168;20.776;2024-03-08T08:37:51;23.45;;;10.77;;
83404;SDS011;73331;48.168;20.776;2024-03-08T08:39:22;27.38;;;13.00;;
83404;SDS011;73331;48.168;20.776;2024-03-08T08:40:52;24.75;;;12.32;;
83404;SDS011;73331;48.168;20.776;2024-03-08T08:42:23;29.38;;;13.70;;
83404;SDS011;73331;48.168;20.776;2024-03-08T08:43:54;25.98;;;13.90;;
83404;SDS011;73331;48.168;20.776;2024-03-08T08:45:25;27.10;;;13.02;;
83404;SDS011;73331;48.168;20.776;2024-03-08T08:46:56;27.60;;;13.88;;
83404;SDS011;73331;48.168;20.776;2024-03-08T08:48:27;26.67;;;13.55;;
83404;SDS011;73331;48.168;20.776;2024-03-08T08:51:31;26.08;;;11.13;;
83404;SDS011;73331;48.168;20.776;2024-03-08T08:53:03;26.83;;;13.77;;
83404;SDS011;73331;48.168;20.776;2024-03-08T08:54:34;31.40;;;14.57;;